Bridgeland, Utah
Current Conditions -  °F | °C
As of 3:53 AM on Saturday 25 Oct 2014 (Local Time) from KPUC Reporting Station
Clear Clear  
Wind Chill: 44°   Ceiling: Unl
Heat Index: 46°   Visibility: 10mi
Dew Point: 32°   Wind: 5mph
Humidity: 58%   Direction: 30°NNE
Pressure: 30.27"   Gusts: NA
Location:  39.9707°N, 110.477°W
Report Text: KPUC 250953Z AUTO 03004KT 10SM CLR 08/00 A3027 RMK AO2 SLP210 T00780000 TSNO
Loading
Personal Weather Stations






























Interactive Weather Map
Tropical Storm Tracking
New forecast layout! Learn more

10-Day Weather Forecast

Advertisements
Track Severe Weather on mobile